Time;durP1;ratioP1;P1;durP2;ratioP2;P2;SDS_P1;SDS_P2;PMS_P1;PMS_P2;Temp;Humidity;BMP_temperature;BMP_pressure;BME280_temperature;BME280_humidity;BME280_pressure;Samples;Min_cycle;Max_cycle;Signal;HPM_P1;HPM_P2
2021/11/06 00:01:50;;;;;;;21.98;15.35;;;4.30;99.90;;;;;;5062807;28;20220;-84
2021/11/06 00:04:17;;;;;;;16.45;13.13;;;;;;;;;;5067073;28;20257;-85
2021/11/06 00:06:45;;;;;;;20.15;14.18;;;5.50;99.90;;;;;;5065645;28;20318;-85
2021/11/06 00:09:12;;;;;;;21.25;14.23;;;4.30;99.90;;;;;;5071953;28;20234;-84
2021/11/06 00:11:39;;;;;;;17.35;14.02;;;4.10;99.90;;;;;;5072857;28;20196;-84
2021/11/06 00:14:07;;;;;;;20.73;14.10;;;3.40;99.90;;;;;;5056788;28;20284;-83
2021/11/06 00:16:34;;;;;;;18.95;13.43;;;;;;;;;;5073099;28;20228;-85
2021/11/06 00:19:01;;;;;;;16.67;13.55;;;;;;;;;;5073723;28;20222;-84
2021/11/06 00:21:28;;;;;;;16.50;13.13;;;4.00;99.90;;;;;;5073151;28;20252;-84
2021/11/06 00:23:56;;;;;;;14.88;12.10;;;3.90;99.90;;;;;;5073491;28;20198;-84
2021/11/06 00:26:23;;;;;;;18.42;12.80;;;3.50;99.90;;;;;;5073481;28;20681;-84
2021/11/06 00:28:50;;;;;;;14.98;12.13;;;3.90;99.90;;;;;;5073392;28;20198;-84
2021/11/06 00:31:17;;;;;;;17.77;12.57;;;;;;;;;;5072322;28;20792;-84
2021/11/06 00:33:44;;;;;;;14.40;11.63;;;3.80;99.90;;;;;;5073150;28;20286;-83
2021/11/06 00:36:11;;;;;;;15.82;11.40;;;3.40;99.90;;;;;;5073146;28;20229;-83
2021/11/06 00:38:38;;;;;;;16.30;11.75;;;3.90;99.90;;;;;;5072997;28;20213;-83
2021/11/06 00:41:06;;;;;;;16.35;12.45;;;3.70;99.90;;;;;;5072679;28;20197;-83
2021/11/06 00:43:33;;;;;;;15.27;11.20;;;3.70;99.90;;;;;;5072901;28;20206;-83
2021/11/06 00:46:00;;;;;;;17.60;12.38;;;;;;;;;;5072465;28;20248;-84
2021/11/06 00:48:27;;;;;;;17.63;11.85;;;4.40;99.90;;;;;;5071578;28;20202;-83
2021/11/06 00:50:54;;;;;;;14.68;10.15;;;;;;;;;;5071877;28;20202;-82
2021/11/06 00:53:21;;;;;;;15.27;12.02;;;3.90;99.90;;;;;;5072881;28;20275;-82
2021/11/06 00:55:48;;;;;;;17.75;13.68;;;3.90;99.90;;;;;;5072732;28;20255;-83
2021/11/06 00:58:16;;;;;;;15.63;12.18;;;4.70;99.90;;;;;;5071843;28;20202;-83
2021/11/06 01:00:44;;;;;;;19.15;13.40;;;3.80;99.90;;;;;;5072044;28;20202;-84
2021/11/06 01:03:10;;;;;;;20.55;12.15;;;3.60;99.90;;;;;;5067495;28;20316;-84
2021/11/06 01:05:39;;;;;;;17.63;12.75;;;;;;;;;;5072889;28;20742;-84
2021/11/06 01:08:07;;;;;;;20.08;13.55;;;;;;;;;;5072739;28;20229;-84
2021/11/06 01:10:34;;;;;;;16.30;11.40;;;;;;;;;;5071813;28;20665;-84
2021/11/06 01:13:02;;;;;;;15.63;11.48;;;;;;;;;;5072400;28;20209;-84
2021/11/06 01:15:31;;;;;;;16.33;12.20;;;;;;;;;;5070427;28;20652;-84
2021/11/06 01:17:58;;;;;;;16.50;12.82;;;;;;;;;;5072963;28;20198;-84
2021/11/06 01:20:25;;;;;;;16.38;12.23;;;3.90;99.90;;;;;;5071773;28;20226;-84
2021/11/06 01:22:52;;;;;;;16.48;11.77;;;;;;;;;;5052980;28;20573;-84
2021/11/06 01:25:20;;;;;;;16.42;12.30;;;;;;;;;;5067246;28;20190;-84
2021/11/06 01:27:47;;;;;;;14.60;13.07;;;;;;;;;;5052364;28;20871;-83
2021/11/06 01:30:15;;;;;;;15.70;12.20;;;3.50;99.90;;;;;;5069601;28;20563;-83
2021/11/06 01:32:45;;;;;;;14.95;11.32;;;3.50;99.90;;;;;;5061142;28;20201;-84
2021/11/06 01:35:13;;;;;;;11.85;10.15;;;3.40;99.90;;;;;;5072801;28;20239;-84
2021/11/06 01:37:40;;;;;;;17.40;11.50;;;3.30;99.90;;;;;;5072026;28;20205;-84
2021/11/06 01:40:10;;;;;;;16.05;11.60;;;3.30;99.90;;;;;;5070692;28;20695;-83
2021/11/06 01:42:37;;;;;;;14.23;11.18;;;;;;;;;;5072056;28;20323;-83
2021/11/06 01:45:05;;;;;;;16.90;12.65;;;3.20;99.90;;;;;;5071974;28;20221;-83
2021/11/06 01:47:32;;;;;;;17.08;11.30;;;3.30;99.90;;;;;;5072065;28;20316;-84
2021/11/06 01:50:00;;;;;;;13.15;10.85;;;;;;;;;;5071744;28;20194;-84
2021/11/06 01:52:27;;;;;;;15.80;11.10;;;;;;;;;;5070478;28;20200;-83
2021/11/06 01:54:54;;;;;;;19.80;12.50;;;2.90;99.90;;;;;;5071891;28;20259;-83
2021/11/06 01:57:22;;;;;;;18.70;11.07;;;3.00;99.90;;;;;;5066200;28;20221;-84
2021/11/06 01:59:49;;;;;;;14.40;11.82;;;3.10;99.90;;;;;;5071883;28;20203;-84
2021/11/06 02:02:16;;;;;;;14.85;10.98;;;2.80;99.90;;;;;;5070015;28;20250;-84
2021/11/06 02:04:45;;;;;;;14.18;10.65;;;;;;;;;;5071777;28;20197;-83
2021/11/06 02:07:13;;;;;;;17.15;12.23;;;3.00;99.90;;;;;;5071195;28;20208;-83
2021/11/06 02:09:40;;;;;;;14.45;11.00;;;;;;;;;;5071452;28;20221;-84
2021/11/06 02:12:09;;;;;;;21.75;11.70;;;2.70;99.90;;;;;;5071225;28;20205;-83
2021/11/06 02:14:37;;;;;;;14.88;10.93;;;;;;;;;;5071012;28;20254;-83
2021/11/06 02:17:05;;;;;;;17.65;12.18;;;3.00;99.90;;;;;;5071112;28;20229;-83
2021/11/06 02:19:33;;;;;;;15.15;11.60;;;3.10;99.90;;;;;;5071011;28;20255;-82
2021/11/06 02:22:01;;;;;;;17.52;13.60;;;3.00;99.90;;;;;;5070473;28;20262;-83
2021/11/06 02:24:29;;;;;;;14.95;11.35;;;3.60;99.90;;;;;;5071058;28;20196;-82
2021/11/06 02:26:56;;;;;;;14.57;11.27;;;3.00;99.90;;;;;;5070489;28;20269;-83
2021/11/06 02:29:23;;;;;;;17.25;11.70;;;2.80;99.90;;;;;;5070946;28;20223;-83
2021/11/06 02:31:50;;;;;;;13.25;10.70;;;2.70;99.90;;;;;;5068609;28;20685;-84
2021/11/06 02:34:17;;;;;;;12.95;10.88;;;;;;;;;;5060676;28;20965;-84
2021/11/06 02:36:44;;;;;;;15.27;12.30;;;2.70;99.90;;;;;;5070897;28;20219;-84
2021/11/06 02:39:12;;;;;;;17.10;12.68;;;2.90;99.90;;;;;;5071125;28;20193;-84
2021/11/06 02:41:39;;;;;;;14.75;10.88;;;2.80;99.90;;;;;;5061218;28;20280;-84
2021/11/06 02:44:07;;;;;;;12.35;10.35;;;2.80;99.90;;;;;;5070989;28;20298;-84
2021/11/06 02:46:36;;;;;;;13.30;9.88;;;2.90;99.90;;;;;;5070605;28;20196;-83
2021/11/06 02:49:03;;;;;;;15.82;11.85;;;2.80;99.90;;;;;;5057576;28;20197;-83
2021/11/06 02:51:30;;;;;;;17.55;11.27;;;;;;;;;;5067435;28;20219;-83
2021/11/06 02:53:57;;;;;;;14.18;11.57;;;;;;;;;;5068502;28;20216;-84
2021/11/06 02:56:26;;;;;;;11.80;9.55;;;2.70;99.90;;;;;;5070405;28;20197;-83
2021/11/06 02:58:53;;;;;;;17.42;11.23;;;2.70;99.90;;;;;;5070603;28;20662;-84
2021/11/06 03:01:20;;;;;;;14.90;12.23;;;2.90;99.90;;;;;;5069542;28;20735;-83
2021/11/06 03:03:47;;;;;;;18.10;12.85;;;2.60;99.90;;;;;;5070157;28;20232;-83
2021/11/06 03:06:15;;;;;;;13.25;10.02;;;3.10;99.90;;;;;;5070542;28;20262;-83
2021/11/06 03:08:42;;;;;;;16.92;11.32;;;2.90;99.90;;;;;;5070279;28;20285;-82
2021/11/06 03:11:09;;;;;;;23.88;12.55;;;;;;;;;;5069929;28;20186;-82
2021/11/06 03:13:38;;;;;;;13.85;12.48;;;3.00;99.90;;;;;;5070543;28;20211;-83
2021/11/06 03:16:08;;;;;;;16.58;12.52;;;3.00;99.90;;;;;;5069749;28;20200;-83
2021/11/06 03:18:36;;;;;;;14.60;12.70;;;2.90;99.90;;;;;;5070393;28;20582;-82
2021/11/06 03:21:03;;;;;;;18.00;12.98;;;3.70;99.90;;;;;;5069877;28;20201;-83
2021/11/06 03:23:30;;;;;;;18.15;12.73;;;;;;;;;;5070277;28;20232;-83
2021/11/06 03:25:58;;;;;;;18.25;13.10;;;3.10;99.90;;;;;;5055138;28;20282;-83
2021/11/06 03:28:25;;;;;;;16.60;11.95;;;3.00;99.90;;;;;;5069502;28;20616;-83
2021/11/06 03:30:54;;;;;;;20.85;12.60;;;;;;;;;;5069583;28;20292;-83
2021/11/06 03:33:21;;;;;;;16.38;11.57;;;;;;;;;;5070054;28;20557;-83
2021/11/06 03:35:48;;;;;;;16.55;12.15;;;;;;;;;;5069943;28;20201;-83
2021/11/06 03:38:15;;;;;;;20.55;11.68;;;;;;;;;;5069721;28;20303;-84
2021/11/06 03:40:43;;;;;;;33.67;11.48;;;;;;;;;;5063634;28;20583;-83
2021/11/06 03:43:10;;;;;;;24.95;13.55;;;3.10;99.90;;;;;;5066302;28;20217;-84
2021/11/06 03:45:37;;;;;;;17.50;12.32;;;2.80;99.90;;;;;;5070172;28;20191;-84
2021/11/06 03:48:06;;;;;;;22.20;13.02;;;3.10;99.90;;;;;;5064669;28;20277;-84
2021/11/06 03:50:33;;;;;;;20.67;12.35;;;;;;;;;;5069009;28;20201;-83
2021/11/06 03:53:00;;;;;;;29.15;12.63;;;;;;;;;;5070325;28;20250;-85
2021/11/06 03:55:27;;;;;;;28.98;12.88;;;3.30;99.90;;;;;;5069185;28;20225;-84
2021/11/06 03:57:54;;;;;;;21.08;11.60;;;3.20;99.90;;;;;;5069962;28;20228;-84
2021/11/06 04:00:23;;;;;;;26.52;11.45;;;3.10;99.90;;;;;;5069251;28;20197;-83
2021/11/06 04:02:50;;;;;;;25.25;12.35;;;3.10;99.90;;;;;;5069735;28;20304;-84
2021/11/06 04:05:19;;;;;;;33.80;11.95;;;3.20;99.90;;;;;;5069941;28;20201;-84
2021/11/06 04:07:46;;;;;;;23.55;12.00;;;2.90;99.90;;;;;;5069855;28;20212;-84
2021/11/06 04:10:13;;;;;;;22.50;11.30;;;2.90;99.90;;;;;;5068394;28;20309;-84
2021/11/06 04:12:41;;;;;;;29.10;13.52;;;3.00;99.90;;;;;;5069625;28;20219;-85
2021/11/06 04:15:10;;;;;;;45.70;13.80;;;3.00;99.90;;;;;;5069110;28;20205;-84
2021/11/06 04:17:38;;;;;;;16.45;12.43;;;;;;;;;;5069830;28;20825;-84
2021/11/06 04:20:07;;;;;;;20.90;12.80;;;2.90;99.90;;;;;;5069053;28;20204;-84
2021/11/06 04:22:35;;;;;;;23.65;11.57;;;;;;;;;;5068977;28;20313;-84
2021/11/06 04:25:03;;;;;;;19.23;11.48;;;2.90;99.90;;;;;;5069759;28;20583;-85
2021/11/06 04:27:30;;;;;;;14.18;12.65;;;;;;;;;;5069735;28;20293;-84
2021/11/06 04:29:57;;;;;;;18.38;12.13;;;2.90;99.90;;;;;;5068910;28;20239;-84
2021/11/06 04:32:24;;;;;;;18.80;12.23;;;2.80;99.90;;;;;;5065840;28;20197;-85
2021/11/06 04:34:53;;;;;;;21.17;11.15;;;;;;;;;;5069442;28;20275;-84
2021/11/06 04:37:20;;;;;;;16.90;12.23;;;;;;;;;;5069258;28;20210;-84
2021/11/06 04:39:50;;;;;;;14.52;10.95;;;;;;;;;;5069537;28;20311;-83
2021/11/06 04:42:18;;;;;;;11.93;10.70;;;2.80;99.90;;;;;;5054696;28;20308;-85
2021/11/06 04:44:45;;;;;;;11.60;10.02;;;;;;;;;;5069277;28;20277;-84
2021/11/06 04:47:12;;;;;;;13.80;9.60;;;;;;;;;;5069478;28;20197;-84
2021/11/06 04:49:39;;;;;;;11.73;8.45;;;;;;;;;;5068288;28;20311;-84
2021/11/06 04:52:08;;;;;;;15.38;10.70;;;2.80;99.90;;;;;;5071857;28;20192;-83
2021/11/06 04:54:35;;;;;;;8.13;6.70;;;3.50;99.90;;;;;;5073016;28;20302;-84
2021/11/06 04:57:04;;;;;;;15.77;7.68;;;2.80;99.90;;;;;;5073094;28;20189;-84
2021/11/06 04:59:31;;;;;;;8.93;7.28;;;;;;;;;;5072453;28;20197;-85
2021/11/06 05:01:58;;;;;;;9.45;7.88;;;2.80;99.90;;;;;;5071991;28;20200;-84
2021/11/06 05:04:28;;;;;;;25.50;8.57;;;;;;;;;;5072374;28;20275;-84
2021/11/06 05:07:04;;;;;;;11.57;8.27;;;;;;;;;;5072976;28;20193;-85
2021/11/06 05:09:31;;;;;;;10.35;6.50;;;;;;;;;;5072378;28;20189;-85
2021/11/06 05:11:59;;;;;;;18.50;8.27;;;;;;;;;;5072101;28;20224;-84
2021/11/06 05:14:29;;;;;;;15.10;8.10;;;;;;;;;;5071818;28;20198;-84
2021/11/06 05:16:56;;;;;;;10.95;7.15;;;;;;;;;;5072429;28;20196;-85
2021/11/06 05:19:26;;;;;;;10.43;7.22;;;;;;;;;;5072136;28;20678;-84
2021/11/06 05:21:53;;;;;;;9.95;6.78;;;;;;;;;;5071843;28;20249;-85
2021/11/06 05:24:20;;;;;;;12.63;7.00;;;2.70;99.90;;;;;;5072586;28;20281;-84
2021/11/06 05:26:47;;;;;;;15.43;8.20;;;2.50;99.90;;;;;;5072115;28;20768;-85
2021/11/06 05:29:18;;;;;;;11.40;8.98;;;3.30;99.90;;;;;;5071658;28;20580;-84
2021/11/06 05:31:46;;;;;;;10.40;8.40;;;;;;;;;;5072236;28;20228;-85
2021/11/06 05:34:13;;;;;;;15.60;10.00;;;2.60;99.90;;;;;;5071876;28;20674;-85
2021/11/06 05:36:40;;;;;;;13.40;9.23;;;2.40;99.90;;;;;;5072543;28;20562;-84
2021/11/06 05:39:07;;;;;;;25.67;11.25;;;2.40;99.90;;;;;;5072061;28;20201;-85
2021/11/06 05:41:34;;;;;;;15.40;9.38;;;2.70;99.90;;;;;;5059075;28;20320;-84
2021/11/06 05:44:02;;;;;;;19.80;10.02;;;2.70;99.90;;;;;;5065816;28;20317;-84
2021/11/06 05:46:29;;;;;;;17.63;9.80;;;2.70;99.90;;;;;;5072156;28;20192;-84
2021/11/06 05:48:57;;;;;;;25.00;12.23;;;2.80;99.90;;;;;;5059666;28;20865;-85
2021/11/06 05:51:24;;;;;;;23.40;9.95;;;;;;;;;;5070577;28;20288;-85
2021/11/06 05:53:52;;;;;;;19.52;9.70;;;2.50;99.90;;;;;;5069780;28;20208;-84
2021/11/06 05:56:19;;;;;;;13.60;9.68;;;;;;;;;;5071018;28;20235;-85
2021/11/06 05:58:47;;;;;;;16.42;9.38;;;;;;;;;;5070728;28;20197;-84
2021/11/06 06:01:14;;;;;;;24.27;10.40;;;;;;;;;;5069714;28;20728;-84
2021/11/06 06:03:41;;;;;;;15.95;9.70;;;2.60;99.90;;;;;;5071027;28;20300;-84
2021/11/06 06:06:09;;;;;;;14.55;8.20;;;2.70;99.90;;;;;;5070270;28;20227;-85
2021/11/06 06:08:37;;;;;;;13.45;8.00;;;;;;;;;;5069846;28;20195;-85
2021/11/06 06:11:04;;;;;;;13.20;8.25;;;2.50;99.90;;;;;;5069092;28;20231;-85
2021/11/06 06:13:30;;;;;;;35.30;8.48;;;3.30;99.90;;;;;;5070369;28;20202;-85
2021/11/06 06:15:58;;;;;;;16.48;8.60;;;2.60;99.90;;;;;;5069780;28;20209;-85
2021/11/06 06:18:25;;;;;;;12.50;8.05;;;;;;;;;;5070431;28;20288;-84
2021/11/06 06:20:52;;;;;;;12.77;7.75;;;2.70;99.90;;;;;;5069740;28;20198;-84
2021/11/06 06:23:20;;;;;;;16.23;8.23;;;;;;;;;;5070296;28;20225;-84
2021/11/06 06:25:48;;;;;;;12.40;7.65;;;;;;;;;;5071556;28;20228;-85
2021/11/06 06:28:15;;;;;;;12.23;5.82;;;2.50;99.90;;;;;;5071425;28;20209;-84
2021/11/06 06:30:42;;;;;;;18.90;7.28;;;2.70;99.90;;;;;;5070777;28;20224;-84
2021/11/06 06:33:08;;;;;;;12.35;7.60;;;2.60;99.90;;;;;;5058791;28;20260;-85
2021/11/06 06:35:36;;;;;;;20.52;8.20;;;;;;;;;;5051581;28;20232;-84
2021/11/06 06:38:02;;;;;;;19.75;7.45;;;3.30;99.90;;;;;;5050571;28;20212;-83
2021/11/06 06:40:31;;;;;;;21.98;8.48;;;;;;;;;;5054272;28;20195;-83
2021/11/06 06:42:58;;;;;;;16.85;8.48;;;;;;;;;;5070939;28;20205;-84
2021/11/06 06:45:25;;;;;;;19.08;8.05;;;2.70;99.90;;;;;;5071109;28;20283;-84
2021/11/06 06:47:53;;;;;;;10.25;8.45;;;;;;;;;;5070716;28;20197;-84
2021/11/06 06:50:20;;;;;;;11.57;8.50;;;;;;;;;;5070279;28;20203;-84
2021/11/06 06:52:47;;;;;;;24.52;8.23;;;2.90;99.90;;;;;;5070806;28;20213;-84
2021/11/06 06:55:14;;;;;;;10.23;8.05;;;;;;;;;;5070821;28;20279;-84
2021/11/06 06:57:42;;;;;;;12.32;7.65;;;;;;;;;;5070657;28;20300;-84
2021/11/06 07:00:11;;;;;;;9.98;7.88;;;;;;;;;;5070119;28;20653;-84
2021/11/06 07:02:38;;;;;;;12.82;7.82;;;2.60;99.90;;;;;;5070863;28;20204;-84
2021/11/06 07:05:05;;;;;;;12.00;7.80;;;;;;;;;;5070149;28;20221;-83
2021/11/06 07:07:32;;;;;;;15.80;8.52;;;;;;;;;;5070171;28;20266;-83
2021/11/06 07:09:59;;;;;;;14.93;8.98;;;;;;;;;;5070749;28;20251;-83
2021/11/06 07:12:29;;;;;;;25.77;8.13;;;;;;;;;;5069914;28;20236;-83
2021/11/06 07:14:58;;;;;;;8.63;6.30;;;2.80;99.90;;;;;;5069481;28;20219;-84
2021/11/06 07:17:25;;;;;;;16.45;8.02;;;;;;;;;;5070138;28;20267;-83
2021/11/06 07:19:52;;;;;;;16.45;7.70;;;3.10;99.90;;;;;;5070162;28;20291;-83
2021/11/06 07:22:19;;;;;;;13.45;8.40;;;2.90;99.90;;;;;;5069459;28;20212;-84
2021/11/06 07:24:47;;;;;;;7.95;6.70;;;;;;;;;;5070602;28;20720;-83
2021/11/06 07:27:14;;;;;;;12.50;5.93;;;;;;;;;;5070734;28;20263;-83
2021/11/06 07:29:41;;;;;;;11.10;6.93;;;;;;;;;;5070551;28;20389;-83
2021/11/06 07:32:09;;;;;;;10.80;7.47;;;3.00;99.90;;;;;;5069117;28;20227;-83
2021/11/06 07:34:36;;;;;;;7.18;5.60;;;3.00;99.90;;;;;;5070486;28;20235;-84
2021/11/06 07:37:04;;;;;;;9.77;7.20;;;;;;;;;;5070281;28;20291;-84
2021/11/06 07:39:31;;;;;;;11.23;7.13;;;;;;;;;;5070387;28;20200;-84
2021/11/06 07:41:58;;;;;;;9.27;7.00;;;3.00;99.90;;;;;;5069482;28;20611;-83
2021/11/06 07:44:25;;;;;;;7.53;5.80;;;;;;;;;;5069953;28;20256;-83
2021/11/06 07:46:53;;;;;;;9.55;7.95;;;3.10;99.90;;;;;;5069575;28;20292;-82
2021/11/06 07:49:21;;;;;;;13.90;6.38;;;3.10;99.90;;;;;;5070348;28;20236;-83
2021/11/06 07:51:59;;;;;;;;;;;;;;;;;;;;;
2021/11/06 07:54:27;;;;;;;19.75;7.20;;;;;;;;;;5069989;28;20213;-83
2021/11/06 07:56:54;;;;;;;11.88;6.38;;;;;;;;;;5069859;28;20705;-82
2021/11/06 07:59:21;;;;;;;9.30;6.72;;;;;;;;;;5070117;28;20701;-83
2021/11/06 08:01:48;;;;;;;11.80;7.30;;;3.40;99.90;;;;;;5069417;28;20262;-83
2021/11/06 08:04:15;;;;;;;10.05;6.43;;;3.60;99.90;;;;;;5069704;28;20752;-83
2021/11/06 08:06:43;;;;;;;16.50;7.22;;;3.40;99.90;;;;;;5070447;28;20607;-85
2021/11/06 08:09:11;;;;;;;13.90;7.85;;;;;;;;;;5069688;28;20213;-84
2021/11/06 08:11:38;;;;;;;9.18;7.60;;;;;;;;;;5069224;28;20201;-85
2021/11/06 08:14:05;;;;;;;15.23;6.80;;;3.60;99.90;;;;;;5069393;28;20665;-85
2021/11/06 08:16:32;;;;;;;15.60;7.40;;;;;;;;;;5069894;28;20815;-84
2021/11/06 08:18:59;;;;;;;12.60;8.00;;;;;;;;;;5069897;28;20205;-84
2021/11/06 08:21:27;;;;;;;16.98;7.80;;;;;;;;;;5069324;28;20247;-84
2021/11/06 08:23:55;;;;;;;13.27;8.25;;;3.70;99.90;;;;;;5069527;28;20224;-84
2021/11/06 08:26:22;;;;;;;20.58;9.52;;;4.40;99.90;;;;;;5071035;28;20258;-84
2021/11/06 08:28:49;;;;;;;21.08;9.60;;;;;;;;;;5072863;28;20228;-85
2021/11/06 08:31:16;;;;;;;13.60;8.38;;;4.20;99.90;;;;;;5072065;28;20230;-84
2021/11/06 08:33:43;;;;;;;11.20;7.70;;;4.00;99.90;;;;;;5072499;28;20553;-84
2021/11/06 08:36:10;;;;;;;19.15;8.30;;;;;;;;;;5072833;28;20544;-84
2021/11/06 08:38:37;;;;;;;10.95;7.10;;;4.10;99.90;;;;;;5072078;28;20206;-84
2021/11/06 08:41:06;;;;;;;22.85;8.60;;;4.20;99.90;;;;;;5072523;28;20198;-85
2021/11/06 08:43:33;;;;;;;21.27;7.45;;;;;;;;;;5073301;28;20540;-84
2021/11/06 08:46:01;;;;;;;23.42;8.18;;;;;;;;;;5073577;28;20228;-86
2021/11/06 08:48:28;;;;;;;16.58;8.07;;;4.00;99.90;;;;;;5073217;28;20297;-85
2021/11/06 08:50:55;;;;;;;24.67;8.88;;;4.20;99.90;;;;;;5072810;28;20316;-86
2021/11/06 08:53:22;;;;;;;20.73;8.00;;;;;;;;;;5072369;28;20663;-86
2021/11/06 08:55:49;;;;;;;15.25;8.30;;;4.00;99.90;;;;;;5073327;28;20271;-85
2021/11/06 08:58:17;;;;;;;17.85;8.05;;;4.20;99.90;;;;;;5072953;28;20263;-86
2021/11/06 09:00:49;;;;;;;20.85;7.72;;;4.20;99.90;;;;;;5072599;28;20224;-85
2021/11/06 09:03:20;;;;;;;21.08;9.50;;;4.10;99.90;;;;;;5072920;28;20557;-86
2021/11/06 09:05:51;;;;;;;16.63;8.35;;;4.40;99.90;;;;;;5072732;28;20306;-85
2021/11/06 09:08:18;;;;;;;10.50;7.50;;;;;;;;;;5072853;28;20197;-86
2021/11/06 09:10:46;;;;;;;9.93;7.63;;;3.90;99.90;;;;;;5072385;28;20202;-86
2021/11/06 09:13:14;;;;;;;15.25;9.23;;;4.40;99.90;;;;;;5072671;28;20206;-87
2021/11/06 09:15:42;;;;;;;13.68;7.20;;;5.30;99.90;;;;;;5072202;28;20214;-86
2021/11/06 09:18:12;;;;;;;14.65;9.32;;;4.50;99.90;;;;;;5072661;28;20196;-85
2021/11/06 09:20:39;;;;;;;12.88;7.93;;;4.60;99.90;;;;;;5071959;28;20884;-84
2021/11/06 09:23:06;;;;;;;13.40;8.98;;;4.40;99.90;;;;;;5072846;28;20201;-85
2021/11/06 09:25:36;;;;;;;16.45;8.35;;;4.50;99.90;;;;;;5072583;28;20321;-86
2021/11/06 09:28:04;;;;;;;10.93;8.15;;;4.50;99.90;;;;;;5072488;28;20246;-86
2021/11/06 09:30:31;;;;;;;21.90;9.15;;;4.60;99.90;;;;;;5071895;28;20611;-86
2021/11/06 09:32:59;;;;;;;11.80;7.72;;;4.70;99.90;;;;;;5071738;28;20202;-85
2021/11/06 09:35:26;;;;;;;13.00;7.65;;;;;;;;;;5072559;28;20254;-86
2021/11/06 09:37:54;;;;;;;12.10;9.40;;;;;;;;;;5071714;28;20280;-86
2021/11/06 09:40:21;;;;;;;16.63;8.70;;;;;;;;;;5071363;28;20295;-85
2021/11/06 09:42:48;;;;;;;16.38;9.60;;;5.20;99.90;;;;;;5072180;28;20239;-85
2021/11/06 09:45:16;;;;;;;17.25;9.55;;;5.10;99.90;;;;;;5071901;28;20701;-85
2021/11/06 09:47:44;;;;;;;14.23;9.32;;;5.10;99.90;;;;;;5071626;28;20204;-85
2021/11/06 09:50:13;;;;;;;19.08;9.43;;;;;;;;;;5071611;28;20306;-85
2021/11/06 09:52:40;;;;;;;13.00;7.68;;;6.00;99.90;;;;;;5072189;28;20235;-84
2021/11/06 09:55:08;;;;;;;15.50;8.95;;;5.90;99.90;;;;;;5071911;28;20203;-85
2021/11/06 09:57:35;;;;;;;11.20;8.38;;;5.30;99.90;;;;;;5071899;28;20239;-84
2021/11/06 10:00:04;;;;;;;14.07;8.27;;;5.50;99.90;;;;;;5071450;28;20242;-85
2021/11/06 10:02:31;;;;;;;10.70;7.50;;;;;;;;;;5071779;28;20604;-85
2021/11/06 10:04:58;;;;;;;11.07;9.52;;;5.30;99.90;;;;;;5071820;28;20278;-85
2021/11/06 10:07:27;;;;;;;19.50;10.80;;;5.50;99.90;;;;;;5071781;28;20199;-86
2021/11/06 10:09:58;;;;;;;17.20;10.70;;;5.50;99.90;;;;;;5071616;28;20238;-85
2021/11/06 10:12:26;;;;;;;13.60;10.05;;;5.60;99.90;;;;;;5070894;28;20204;-85
2021/11/06 10:15:07;;;;;;;15.82;8.68;;;5.60;99.90;;;;;;5070765;28;20235;-85
2021/11/06 10:17:53;;;;;;;14.02;9.10;;;5.50;99.90;;;;;;5063900;28;20364;-86
2021/11/06 10:20:33;;;;;;;15.13;10.57;;;5.70;99.90;;;;;;5064636;28;20535;-83
2021/11/06 10:23:05;;;;;;;19.65;11.95;;;5.90;99.90;;;;;;5071133;28;20257;-86
2021/11/06 10:25:32;;;;;;;18.48;11.63;;;5.80;99.90;;;;;;5071625;28;20322;-86
2021/11/06 10:28:04;;;;;;;18.27;11.10;;;5.90;99.90;;;;;;5062705;28;20844;-85
2021/11/06 10:30:34;;;;;;;19.30;11.00;;;5.90;99.90;;;;;;5071445;28;20644;-86
2021/11/06 10:33:09;;;;;;;21.88;11.63;;;6.00;99.90;;;;;;5071524;28;20278;-86
2021/11/06 10:35:40;;;;;;;16.92;11.32;;;6.00;99.90;;;;;;5070826;28;20211;-87
2021/11/06 10:38:12;;;;;;;16.98;11.27;;;;;;;;;;5071370;28;20208;-85
2021/11/06 10:40:43;;;;;;;19.55;13.57;;;6.10;99.90;;;;;;5071111;28;20199;-84
2021/11/06 10:43:15;;;;;;;26.15;12.88;;;6.30;99.90;;;;;;5071390;28;20204;-85
2021/11/06 10:45:45;;;;;;;20.55;12.55;;;;;;;;;;5071121;28;20227;-85
2021/11/06 10:48:15;;;;;;;18.83;11.73;;;6.30;99.90;;;;;;5070012;28;20279;-85
2021/11/06 10:50:57;;;;;;;25.30;14.18;;;6.40;99.90;;;;;;5071198;28;20199;-86
2021/11/06 10:53:42;;;;;;;20.55;13.40;;;6.50;99.90;;;;;;5070978;28;20208;-85
2021/11/06 10:56:42;;;;;;;23.65;13.43;;;6.40;99.90;;;;;;5070966;28;20195;-84
2021/11/06 10:59:14;;;;;;;23.10;14.45;;;6.30;99.90;;;;;;5070926;28;20211;-85
2021/11/06 11:01:42;;;;;;;18.75;14.15;;;6.50;99.90;;;;;;5070972;28;20202;-86
2021/11/06 11:04:13;;;;;;;21.88;13.90;;;6.30;99.90;;;;;;5071141;28;20204;-87
2021/11/06 11:06:45;;;;;;;25.95;15.32;;;6.20;99.90;;;;;;5070549;28;20234;-87
2021/11/06 11:09:15;;;;;;;21.80;14.02;;;6.20;99.90;;;;;;5071237;28;20597;-87
2021/11/06 11:11:43;;;;;;;22.30;13.68;;;;;;;;;;5070041;28;20672;-86
2021/11/06 11:14:12;;;;;;;20.63;14.18;;;6.40;99.90;;;;;;5069337;28;20207;-87
2021/11/06 11:16:50;;;;;;;21.13;14.10;;;6.40;99.90;;;;;;5062268;28;20653;-87
2021/11/06 11:19:17;;;;;;;25.52;15.75;;;;;;;;;;5053523;28;20202;-84
2021/11/06 11:21:46;;;;;;;24.92;16.63;;;6.70;99.90;;;;;;5070771;28;20722;-87
2021/11/06 11:24:17;;;;;;;24.60;16.73;;;6.70;99.90;;;;;;5070880;28;20222;-88
2021/11/06 11:26:46;;;;;;;26.15;17.50;;;6.50;99.90;;;;;;5071203;28;20285;-88
2021/11/06 11:29:20;;;;;;;26.60;15.75;;;6.60;99.90;;;;;;5070903;28;20707;-88
2021/11/06 11:31:48;;;;;;;22.35;16.00;;;6.80;99.90;;;;;;5068716;28;20220;-88
2021/11/06 11:34:15;;;;;;;27.20;15.85;;;;;;;;;;5087013;28;20195;-87
2021/11/06 11:36:47;;;;;;;25.15;16.10;;;7.00;99.90;;;;;;5069903;28;20212;-87
2021/11/06 11:39:17;;;;;;;26.02;17.40;;;7.20;99.90;;;;;;5068546;28;20191;-87
2021/11/06 11:42:15;;;;;;;26.13;14.60;;;7.60;99.90;;;;;;5086892;28;20199;-87
2021/11/06 11:45:20;;;;;;;25.25;14.30;;;7.70;99.90;;;;;;5073513;28;20632;-88
2021/11/06 11:47:52;;;;;;;23.00;15.70;;;7.30;99.90;;;;;;5079752;28;20200;-88
2021/11/06 11:50:26;;;;;;;23.50;16.20;;;7.30;99.90;;;;;;5085249;28;20697;-88
2021/11/06 11:52:54;;;;;;;24.85;17.35;;;7.30;99.90;;;;;;5073713;28;20621;-89
2021/11/06 11:55:33;;;;;;;24.80;17.20;;;7.50;99.90;;;;;;5083507;28;20206;-88
2021/11/06 11:58:10;;;;;;;22.67;16.05;;;7.30;99.90;;;;;;5082684;28;20613;-86
2021/11/06 12:00:43;;;;;;;26.67;17.77;;;7.30;99.90;;;;;;5076109;28;20286;-88
2021/11/06 12:03:11;;;;;;;21.80;15.02;;;;;;;;;;5088615;28;20887;-86
2021/11/06 12:05:43;;;;;;;24.58;16.38;;;7.20;99.90;;;;;;5083659;28;20307;-85
2021/11/06 12:08:33;;;;;;;27.23;16.95;;;7.30;99.90;;;;;;5080507;28;20192;-88
2021/11/06 12:11:14;;;;;;;27.65;17.35;;;;;;;;;;5062402;28;20191;-86
2021/11/06 12:13:48;;;;;;;23.30;16.70;;;7.30;99.90;;;;;;5084161;28;20268;-87
2021/11/06 12:16:17;;;;;;;22.42;14.55;;;7.20;99.90;;;;;;5088518;28;20315;-86
2021/11/06 12:18:49;;;;;;;27.50;15.80;;;;;;;;;;5077764;28;20188;-87
2021/11/06 12:21:25;;;;;;;27.17;17.38;;;;;;;;;;5087545;28;20187;-87
2021/11/06 12:23:53;;;;;;;21.02;15.50;;;7.20;99.90;;;;;;5084605;28;20237;-86
2021/11/06 12:26:24;;;;;;;28.27;15.43;;;7.20;99.90;;;;;;5078556;28;20227;-86
2021/11/06 12:29:24;;;;;;;19.92;14.85;;;7.10;99.90;;;;;;5090594;28;20204;-86
2021/11/06 12:31:53;;;;;;;22.15;15.75;;;7.20;99.90;;;;;;5083299;28;20290;-87
2021/11/06 12:34:33;;;;;;;26.85;15.02;;;7.10;99.90;;;;;;5089009;28;20199;-87
2021/11/06 12:37:01;;;;;;;25.77;16.42;;;;;;;;;;5062093;28;20191;-86
2021/11/06 12:39:48;;;;;;;20.60;15.50;;;7.30;99.90;;;;;;5085621;28;20199;-87
2021/11/06 12:42:18;;;;;;;18.45;14.55;;;7.10;99.90;;;;;;5087831;28;20234;-87
2021/11/06 12:44:54;;;;;;;23.10;15.82;;;7.20;99.90;;;;;;5075983;28;20583;-88
2021/11/06 12:47:22;;;;;;;20.65;14.52;;;7.20;99.90;;;;;;5086783;28;20553;-87
2021/11/06 12:49:52;;;;;;;20.92;14.10;;;7.20;99.90;;;;;;5084427;28;20202;-87
2021/11/06 12:52:24;;;;;;;29.05;16.08;;;7.30;99.90;;;;;;5077795;28;20243;-87
2021/11/06 12:54:52;;;;;;;24.58;14.70;;;;;;;;;;5090044;28;20206;-87
2021/11/06 12:57:30;;;;;;;20.90;12.95;;;;;;;;;;5079928;28;20218;-87
2021/11/06 12:59:57;;;;;;;19.97;12.53;;;7.10;99.90;;;;;;5080946;28;20657;-86
2021/11/06 13:02:24;;;;;;;23.65;14.98;;;;;;;;;;5088985;28;20609;-87
2021/11/06 13:04:58;;;;;;;22.58;12.98;;;;;;;;;;5076811;28;20588;-87
2021/11/06 13:07:27;;;;;;;21.83;15.87;;;7.30;99.90;;;;;;5075591;28;20233;-84
2021/11/06 13:09:54;;;;;;;22.75;13.90;;;7.20;99.90;;;;;;5087884;28;21237;-85
2021/11/06 13:12:22;;;;;;;24.63;15.57;;;;;;;;;;5075397;28;20736;-86
2021/11/06 13:14:52;;;;;;;23.40;15.20;;;7.30;99.90;;;;;;5088310;28;20225;-86
2021/11/06 13:17:24;;;;;;;25.17;14.52;;;7.30;99.90;;;;;;5081659;28;20572;-87
2021/11/06 13:20:05;;;;;;;22.80;15.50;;;;;;;;;;5079871;28;20258;-87
2021/11/06 13:22:47;;;;;;;24.13;14.98;;;7.40;99.90;;;;;;5089199;28;20191;-86
2021/11/06 13:25:17;;;;;;;25.63;15.25;;;7.30;99.90;;;;;;5080781;28;20252;-88